This is the latest recevied weather packets stored in our database for station/object KC1TEM-13. If no packets are shown the sender has not sent any weather packets the latest 10 day(s).
| Time | Temp. | Humidity | Pressure | Rain* | Wind** | Luminosity | Snow |
|---|---|---|---|---|---|---|---|
| 1777896226 | 11.67° C | 48% | 1010.3 hPa | 0 mm | - | 241 W/m² | - |
| 1777895924 | 11.11° C | 51% | 1010.2 hPa | 0 mm | - | 220 W/m² | - |
| 1777895622 | 10° C | 54% | 1010.3 hPa | 0 mm | - | 231 W/m² | - |
| 1777895319 | 9.44° C | 55% | 1010.4 hPa | 0 mm | - | 223 W/m² | - |
| 1777895016 | 9.44° C | 53% | 1010.3 hPa | 0 mm | - | 64 W/m² | - |
| 1777894714 | 10° C | 52% | 1010.5 hPa | 0 mm | - | 65 W/m² | - |
| 1777894410 | 10° C | 52% | 1010.4 hPa | 0 mm | - | 82 W/m² | - |
| 1777894108 | 9.44° C | 54% | 1010.6 hPa | 0 mm | - | 225 W/m² | - |
| 1777893805 | 8.89° C | 57% | 1010.5 hPa | 0 mm | - | 91 W/m² | - |
| 1777893501 | 8.89° C | 56% | 1010.6 hPa | 0 mm | - | 164 W/m² | - |
| 1777893197 | 8.33° C | 56% | 1010.8 hPa | 0 mm | - | 76 W/m² | - |
| 1777892894 | 8.33° C | 57% | 1010.5 hPa | 0 mm | - | 60 W/m² | - |
| 1777892590 | 8.33° C | 57% | 1010.7 hPa | 0 mm | - | 43 W/m² | - |
| 1777892286 | 7.78° C | 57% | 1010.7 hPa | 0 mm | - | 36 W/m² | - |
| 1777891982 | 7.78° C | 58% | 1010.5 hPa | 0 mm | - | 26 W/m² | - |
| 1777891681 | 7.78° C | 58% | 1010.4 hPa | 0 mm | - | 27 W/m² | - |
| 1777891376 | 7.78° C | 58% | 1010.5 hPa | 0 mm | - | 26 W/m² | - |
| 1777891072 | 7.22° C | 58% | 1010.5 hPa | 0 mm | - | 22 W/m² | - |
| 1777890767 | 7.22° C | 59% | 1010.5 hPa | 0 mm | - | 29 W/m² | - |
| 1777890463 | 7.22° C | 60% | 1010.5 hPa | 0 mm | - | 24 W/m² | - |
| 1777890159 | 6.67° C | 60% | 1010.5 hPa | 0 mm | - | 25 W/m² | - |
| 1777889856 | 6.67° C | 60% | 1010.6 hPa | 0 mm | - | 21 W/m² | - |
| 1777889553 | 6.67° C | 61% | 1010.5 hPa | 0 mm | - | 20 W/m² | - |
| 1777889251 | 6.67° C | 62% | 1010.6 hPa | 0 mm | - | 17 W/m² | - |
| 1777888948 | 6.11° C | 64% | 1010.7 hPa | 0 mm | - | 12 W/m² | - |
* Rain latest hour (hover to see other rain measurements)
** Current wind speed in m/s (hover to see current wind gust speed)